Armourdale, North Dakota
Current Conditions -  °F | °C
As of 10:35 PM on Friday 19 Dec 2014 (Local Time) from K06D Reporting Station
Overcast Overcast  
Wind Chill: 25°   Ceiling: 300
Heat Index: 25°   Visibility: 7mi
Dew Point: 25°   Wind: 0mph
Humidity: 100%   Direction: NA
Pressure: 29.94"   Gusts: NA
Location:  48.8584°N, 99.1311°W
Report Text: K06D 200435Z AUTO 00000KT 7SM OVC003 M04/M04 A2994 RMK AO2
Loading
Personal Weather Stations






























Interactive Weather Map New forecast layout! Learn more

10-Day Weather Forecast

Advertisements
Track Severe Weather on mobile